TimeCST,TemperatureF,Dew PointF,Humidity,Sea Level PressureIn,VisibilityMPH,Wind Direction,Wind SpeedMPH,Gust SpeedMPH,PrecipitationIn,Events,Conditions,WindDirDegrees,DateUTC
12:53 AM,28.9,23.0,78,30.14,10.0,East,8.1,-,N/A,,Clear,90,2012-11-26 06:53:00
1:22 AM,30.2,24.8,80,30.11,10.0,ENE,5.8,-,N/A,,Mostly Cloudy,70,2012-11-26 07:22:00
1:44 AM,30.2,24.8,80,30.11,10.0,ENE,12.7,-,N/A,,Overcast,70,2012-11-26 07:44:00
1:53 AM,32.0,25.0,75,30.15,10.0,ENE,9.2,-,N/A,,Overcast,60,2012-11-26 07:53:00
2:06 AM,32.0,26.6,80,30.13,10.0,NE,11.5,-,N/A,,Overcast,50,2012-11-26 08:06:00
2:36 AM,32.0,24.8,75,30.14,10.0,NE,11.5,-,N/A,,Overcast,50,2012-11-26 08:36:00
2:53 AM,32.0,24.1,73,30.18,10.0,ENE,11.5,-,N/A,,Overcast,60,2012-11-26 08:53:00
3:49 AM,30.2,24.8,80,30.17,10.0,NE,12.7,-,N/A,,Overcast,50,2012-11-26 09:49:00
3:53 AM,30.9,25.0,79,30.21,10.0,ENE,11.5,-,N/A,,Overcast,60,2012-11-26 09:53:00
4:16 AM,30.2,24.8,80,30.18,10.0,NE,12.7,-,N/A,,Overcast,40,2012-11-26 10:16:00
4:53 AM,30.9,25.0,79,30.23,10.0,NE,12.7,-,N/A,,Overcast,40,2012-11-26 10:53:00
5:05 AM,30.2,24.8,80,30.19,10.0,NE,15.0,-,N/A,,Overcast,40,2012-11-26 11:05:00
5:53 AM,28.9,23.0,78,30.29,10.0,NNE,13.8,-,N/A,,Overcast,30,2012-11-26 11:53:00
6:53 AM,28.9,23.0,78,30.32,10.0,NE,8.1,-,N/A,,Overcast,50,2012-11-26 12:53:00
7:53 AM,28.0,23.0,81,30.37,7.0,NE,8.1,-,0.00,Snow,Light Snow,40,2012-11-26 13:53:00
8:28 AM,28.4,23.0,80,30.33,4.0,NNE,8.1,-,0.00,Snow,Light Snow,20,2012-11-26 14:28:00
8:35 AM,28.4,23.0,80,30.34,1.8,NNE,8.1,-,0.01,Snow,Light Snow,30,2012-11-26 14:35:00
8:44 AM,28.4,24.8,86,30.34,0.8,NNE,10.4,-,0.01,Snow,Light Snow,30,2012-11-26 14:44:00
8:51 AM,28.4,24.8,86,30.35,0.5,NNE,9.2,-,0.02,Fog-Snow,Snow,20,2012-11-26 14:51:00
8:53 AM,27.0,24.1,89,30.42,0.5,NNE,6.9,-,0.02,Fog-Snow,Snow,20,2012-11-26 14:53:00
9:27 AM,28.4,24.8,86,30.37,0.8,NNE,9.2,-,0.01,Snow,Light Snow,20,2012-11-26 15:27:00
9:29 AM,28.4,24.8,86,30.37,1.0,NNE,8.1,-,0.01,Snow,Light Snow,20,2012-11-26 15:29:00
9:44 AM,28.4,24.8,86,30.38,1.5,North,4.6,-,0.02,Snow,Light Snow,10,2012-11-26 15:44:00
9:53 AM,28.0,24.1,85,30.46,1.5,NNE,8.1,-,0.02,Snow,Light Snow,20,2012-11-26 15:53:00
9:59 AM,28.4,24.8,86,30.39,1.2,NNE,8.1,-,0.00,Snow,Light Snow,20,2012-11-26 15:59:00
10:35 AM,28.4,24.8,86,30.41,1.8,NE,6.9,-,0.01,Snow,Light Snow,40,2012-11-26 16:35:00
10:43 AM,28.4,24.8,86,30.41,2.5,NE,6.9,-,0.01,Snow,Light Snow,50,2012-11-26 16:43:00
10:51 AM,28.4,24.8,86,30.41,3.0,NE,5.8,-,0.01,Snow,Light Snow,40,2012-11-26 16:51:00
10:53 AM,28.0,24.1,85,30.49,3.0,NE,5.8,-,0.01,Snow,Light Snow,50,2012-11-26 16:53:00
11:03 AM,28.4,24.8,86,30.42,2.5,NNE,4.6,-,0.00,Snow,Light Snow,20,2012-11-26 17:03:00
11:10 AM,28.4,23.0,80,30.42,3.0,NNE,6.9,-,0.00,Snow,Light Snow,20,2012-11-26 17:10:00
11:30 AM,28.4,23.0,80,30.41,6.0,NNE,3.5,-,0.00,,Haze,20,2012-11-26 17:30:00
11:53 AM,28.0,23.0,81,30.50,9.0,North,3.5,-,0.00,,Overcast,10,2012-11-26 17:53:00
12:06 PM,28.4,23.0,80,30.41,9.0,Calm,Calm,-,N/A,,Overcast,0,2012-11-26 18:06:00
12:16 PM,28.4,21.2,74,30.40,10.0,North,3.5,-,N/A,,Overcast,350,2012-11-26 18:16:00
12:53 PM,28.9,24.1,82,30.48,10.0,North,3.5,-,N/A,,Overcast,10,2012-11-26 18:53:00
1:42 PM,32.0,24.8,75,30.38,10.0,NW,5.8,-,N/A,,Mostly Cloudy,310,2012-11-26 19:42:00
1:53 PM,32.0,25.0,75,30.45,10.0,NNW,3.5,-,N/A,,Scattered Clouds,340,2012-11-26 19:53:00
2:03 PM,33.8,26.6,75,30.38,10.0,Calm,Calm,-,N/A,,Mostly Cloudy,0,2012-11-26 20:03:00
2:12 PM,32.0,24.8,75,30.37,10.0,Calm,Calm,-,N/A,,Mostly Cloudy,0,2012-11-26 20:12:00
2:44 PM,33.8,24.8,70,30.36,10.0,NW,3.5,-,N/A,,Scattered Clouds,320,2012-11-26 20:44:00
2:51 PM,35.6,24.8,65,30.36,10.0,Variable,5.8,-,N/A,,Mostly Cloudy,0,2012-11-26 20:51:00
2:53 PM,35.1,26.1,70,30.43,10.0,NW,4.6,-,N/A,,Mostly Cloudy,310,2012-11-26 20:53:00
3:53 PM,34.0,24.1,67,30.43,10.0,Calm,Calm,-,N/A,,Mostly Cloudy,0,2012-11-26 21:53:00
4:00 PM,33.8,24.8,70,30.36,10.0,Calm,Calm,-,N/A,,Scattered Clouds,0,2012-11-26 22:00:00
4:23 PM,33.8,24.8,70,30.35,10.0,West,4.6,-,N/A,,Mostly Cloudy,260,2012-11-26 22:23:00
4:30 PM,33.8,24.8,70,30.35,10.0,West,3.5,-,N/A,,Scattered Clouds,280,2012-11-26 22:30:00
4:53 PM,32.0,25.0,75,30.42,10.0,SSW,3.5,-,N/A,,Clear,210,2012-11-26 22:53:00
5:20 PM,30.2,24.8,80,30.35,10.0,SSW,4.6,-,N/A,,Mostly Cloudy,210,2012-11-26 23:20:00
5:53 PM,28.9,24.1,82,30.44,10.0,SSW,4.6,-,N/A,,Overcast,200,2012-11-26 23:53:00
6:10 PM,28.4,23.0,80,30.36,10.0,South,3.5,-,N/A,,Scattered Clouds,180,2012-11-27 00:10:00
6:20 PM,26.6,21.2,80,30.36,10.0,SSW,3.5,-,N/A,,Mostly Cloudy,210,2012-11-27 00:20:00
6:37 PM,26.6,21.2,80,30.36,10.0,SSW,4.6,-,N/A,,Scattered Clouds,200,2012-11-27 00:37:00
6:53 PM,24.1,19.9,84,30.45,10.0,Calm,Calm,-,N/A,,Clear,0,2012-11-27 00:53:00
7:53 PM,23.0,19.0,85,30.45,10.0,South,4.6,-,N/A,,Clear,180,2012-11-27 01:53:00
8:53 PM,19.9,17.1,89,30.46,10.0,Calm,Calm,-,N/A,,Clear,0,2012-11-27 02:53:00
9:53 PM,19.0,16.0,88,30.45,10.0,SSE,3.5,-,N/A,,Clear,160,2012-11-27 03:53:00
10:53 PM,19.0,15.1,85,30.45,10.0,South,4.6,-,N/A,,Clear,190,2012-11-27 04:53:00
11:53 PM,21.0,17.1,85,30.43,10.0,South,6.9,-,N/A,,Clear,180,2012-11-27 05:53:00